Time;durP1;ratioP1;P1;durP2;ratioP2;P2;SDS_P1;SDS_P2;PMS_P1;PMS_P2;Temp;Humidity;BMP_temperature;BMP_pressure;BME280_temperature;BME280_humidity;BME280_pressure;Samples;Min_cycle;Max_cycle;Signal;HPM_P1;HPM_P2
2023/08/03 00:01:45;;;;;;;94.22;6.65;;;;;;;;;;5006573;28;20065;-53
2023/08/03 00:04:11;;;;;;;112.60;8.17;;;;;;;;;;5005285;28;20403;-53
2023/08/03 00:06:36;;;;;;;64.33;5.37;;;;;;;;;;5004773;28;20817;-53
2023/08/03 00:09:01;;;;;;;103.18;7.45;;;;;;;;;;5006046;28;20311;-53
2023/08/03 00:11:26;;;;;;;77.23;6.10;;;;;;;;;;5004313;28;20041;-53
2023/08/03 00:13:52;;;;;;;61.63;5.20;;;;;;;;;;5005531;28;20955;-53
2023/08/03 00:16:17;;;;;;;120.13;9.37;;;;;;;;;;5002676;28;20554;-54
2023/08/03 00:18:42;;;;;;;77.93;6.50;;;;;;;;;;5005374;28;20319;-54
2023/08/03 00:21:07;;;;;;;86.83;6.60;;;;;;;;;;5006771;28;20311;-53
2023/08/03 00:23:33;;;;;;;90.27;6.93;;;;;;;;;;5005945;28;20299;-53
2023/08/03 00:25:58;;;;;;;86.03;11.23;;;;;;;;;;5007965;28;20319;-53
2023/08/03 00:28:23;;;;;;;108.63;24.63;;;;;;;;;;5008388;28;20407;-54
2023/08/03 00:30:48;;;;;;;101.72;7.18;;;;;;;;;;5007235;28;20276;-54
2023/08/03 00:33:14;;;;;;;85.20;6.33;;;;;;;;;;5010006;28;20207;-54
2023/08/03 00:35:39;;;;;;;87.73;6.73;;;;;;;;;;5008064;28;20257;-53
2023/08/03 00:38:04;;;;;;;77.37;6.37;;;;;;;;;;5007636;28;20347;-55
2023/08/03 00:40:29;;;;;;;109.67;34.03;;;;;;;;;;5007388;28;20344;-55
2023/08/03 00:42:55;;;;;;;74.95;5.70;;;;;;;;;;5008089;28;20029;-54
2023/08/03 00:45:20;;;;;;;98.82;7.25;;;;;;;;;;5006504;28;20037;-54
2023/08/03 00:47:46;;;;;;;72.30;5.70;;;;;;;;;;5007616;28;20946;-54
2023/08/03 00:50:11;;;;;;;71.60;6.40;;;;;;;;;;5006221;28;20030;-54
2023/08/03 00:52:37;;;;;;;89.43;6.40;;;;;;;;;;5006424;28;20022;-53
2023/08/03 00:55:02;;;;;;;51.92;4.45;;;;;;;;;;5007629;28;20273;-54
2023/08/03 00:57:28;;;;;;;59.63;4.82;;;;;;;;;;5008299;28;20041;-54
2023/08/03 00:59:54;;;;;;;91.28;6.70;;;;;;;;;;5007772;28;20203;-53
2023/08/03 01:02:19;;;;;;;68.88;5.50;;;;;;;;;;5007209;28;20037;-54
2023/08/03 01:04:44;;;;;;;85.18;6.18;;;;;;;;;;5005330;28;20447;-53
2023/08/03 01:07:10;;;;;;;82.43;6.43;;;;;;;;;;5007072;28;20029;-53
2023/08/03 01:09:35;;;;;;;68.07;5.70;;;;;;;;;;5006437;28;20292;-55
2023/08/03 01:12:00;;;;;;;85.40;6.03;;;;;;;;;;5005713;28;20674;-54
2023/08/03 01:14:26;;;;;;;80.32;6.13;;;;;;;;;;5007983;28;20082;-54
2023/08/03 01:16:51;;;;;;;79.00;5.90;;;;;;;;;;5005480;28;20129;-55
2023/08/03 01:19:16;;;;;;;73.78;5.65;;;;;;;;;;5008460;28;20034;-54
2023/08/03 01:21:42;;;;;;;86.95;6.35;;;;;;;;;;5004949;28;20557;-54
2023/08/03 01:24:08;;;;;;;59.90;4.88;;;;;;;;;;5007381;28;20447;-53
2023/08/03 01:26:33;;;;;;;65.97;5.28;;;;;;;;;;5006823;28;20100;-55
2023/08/03 01:28:58;;;;;;;93.03;6.67;;;;;;;;;;5007252;28;20387;-53
2023/08/03 01:31:24;;;;;;;79.30;12.73;;;;;;;;;;5007290;28;20360;-53
2023/08/03 01:33:49;;;;;;;118.55;36.65;;;;;;;;;;5007570;28;20797;-54
2023/08/03 01:36:14;;;;;;;103.15;6.78;;;;;;;;;;5007198;28;20050;-55
2023/08/03 01:38:40;;;;;;;71.90;5.55;;;;;;;;;;5009598;28;20061;-55
2023/08/03 01:41:05;;;;;;;71.03;5.35;;;;;;;;;;5007137;28;20053;-53
2023/08/03 01:43:30;;;;;;;80.83;5.50;;;;;;;;;;5006350;28;20048;-54
2023/08/03 01:45:56;;;;;;;62.35;4.85;;;;;;;;;;5005610;28;20273;-54
2023/08/03 01:48:21;;;;;;;75.03;5.40;;;;;;;;;;5007094;28;20041;-53
2023/08/03 01:50:46;;;;;;;98.60;6.67;;;;;;;;;;5004448;28;20269;-55
2023/08/03 01:53:15;;;;;;;93.13;8.23;;;;;;;;;;5006657;28;20292;-54
2023/08/03 01:55:40;;;;;;;85.82;6.07;;;;;;;;;;5006416;28;20033;-54
2023/08/03 01:58:06;;;;;;;83.07;5.73;;;;;;;;;;5006701;28;20097;-55
2023/08/03 02:00:31;;;;;;;75.13;5.53;;;;;;;;;;5005699;28;20269;-54
2023/08/03 02:02:56;;;;;;;73.18;5.20;;;;;;;;;;5007269;28;20419;-53
2023/08/03 02:05:21;;;;;;;92.23;6.33;;;;;;;;;;5007448;28;20034;-53
2023/08/03 02:07:53;;;;;;;67.53;4.77;;;;;;;;;;5009498;28;20299;-54
2023/08/03 02:10:18;;;;;;;72.93;5.18;;;;;;;;;;5006334;28;20264;-54
2023/08/03 02:12:44;;;;;;;84.25;5.82;;;;;;;;;;5004749;28;20055;-55
2023/08/03 02:15:09;;;;;;;123.65;46.58;;;;;;;;;;5007726;28;20026;-55
2023/08/03 02:17:34;;;;;;;90.97;8.98;;;;;;;;;;5006637;28;20077;-54
2023/08/03 02:20:00;;;;;;;217.87;56.00;;;;;;;;;;5006683;28;20053;-56
2023/08/03 02:22:25;;;;;;;76.65;5.30;;;;;;;;;;5007167;28;20284;-54
2023/08/03 02:24:50;;;;;;;128.03;28.10;;;;;;;;;;5006067;28;20029;-54
2023/08/03 02:27:15;;;;;;;98.63;6.40;;;;;;;;;;5005555;28;20292;-55
2023/08/03 02:29:41;;;;;;;79.50;5.25;;;;;;;;;;5007132;28;20022;-55
2023/08/03 02:32:06;;;;;;;65.07;5.05;;;;;;;;;;5012376;28;20392;-55
2023/08/03 02:34:31;;;;;;;93.03;12.02;;;;;;;;;;5005317;28;20044;-54
2023/08/03 02:36:57;;;;;;;75.40;5.40;;;;;;;;;;5005728;28;20385;-52
2023/08/03 02:39:22;;;;;;;81.17;5.67;;;;;;;;;;5008286;28;20580;-55
2023/08/03 02:41:47;;;;;;;102.30;6.23;;;;;;;;;;5009286;28;21380;-54
2023/08/03 02:44:12;;;;;;;230.30;106.93;;;;;;;;;;5012641;28;20295;-53
2023/08/03 02:46:37;;;;;;;50.50;3.97;;;;;;;;;;5008833;28;20312;-55
2023/08/03 02:49:03;;;;;;;94.17;6.13;;;;;;;;;;5012072;28;20377;-53
2023/08/03 02:51:28;;;;;;;83.17;5.67;;;;;;;;;;5009657;28;20364;-53
2023/08/03 02:53:53;;;;;;;77.13;5.28;;;;;;;;;;5009796;28;20275;-53
2023/08/03 02:56:18;;;;;;;102.28;6.93;;;;;;;;;;5008961;28;20420;-53
2023/08/03 02:58:44;;;;;;;73.83;5.67;;;;;;;;;;5011092;28;20072;-53
2023/08/03 03:01:09;;;;;;;80.47;5.50;;;;;;;;;;5007977;28;20281;-55
2023/08/03 03:03:34;;;;;;;101.95;6.72;;;;;;;;;;5009810;28;20624;-53
2023/08/03 03:05:59;;;;;;;74.33;5.03;;;;;;;;;;5009835;28;20053;-54
2023/08/03 03:08:24;;;;;;;56.00;4.43;;;;;;;;;;5008935;28;20771;-53
2023/08/03 03:10:50;;;;;;;82.10;5.85;;;;;;;;;;5010649;28;20815;-53
2023/08/03 03:13:15;;;;;;;89.23;6.13;;;;;;;;;;5008253;28;20034;-55
2023/08/03 03:15:40;;;;;;;91.75;5.75;;;;;;;;;;5010153;28;20718;-54
2023/08/03 03:18:05;;;;;;;91.30;6.07;;;;;;;;;;5009082;28;20069;-54
2023/08/03 03:20:31;;;;;;;70.65;5.22;;;;;;;;;;5008927;28;20334;-55
2023/08/03 03:22:56;;;;;;;72.37;5.07;;;;;;;;;;5008112;28;20116;-56
2023/08/03 03:25:21;;;;;;;98.47;7.07;;;;;;;;;;5009256;28;20280;-55
2023/08/03 03:27:46;;;;;;;77.17;5.57;;;;;;;;;;5009083;28;20120;-54
2023/08/03 03:30:12;;;;;;;87.33;5.77;;;;;;;;;;5011440;28;20758;-54
2023/08/03 03:32:37;;;;;;;79.40;5.75;;;;;;;;;;5007550;28;20072;-54
2023/08/03 03:35:02;;;;;;;66.53;6.03;;;;;;;;;;5009747;28;20226;-55
2023/08/03 03:37:27;;;;;;;75.03;5.63;;;;;;;;;;5011882;28;20950;-53
2023/08/03 03:39:53;;;;;;;83.20;6.13;;;;;;;;;;5009733;28;20549;-54
2023/08/03 03:42:18;;;;;;;171.98;53.28;;;;;;;;;;5009071;28;20654;-54
2023/08/03 03:44:43;;;;;;;88.60;8.10;;;;;;;;;;5008027;28;20437;-53
2023/08/03 03:47:09;;;;;;;71.25;6.45;;;;;;;;;;5010184;28;20618;-54
2023/08/03 03:49:34;;;;;;;192.93;67.60;;;;;;;;;;5008335;28;20025;-56
2023/08/03 03:51:59;;;;;;;71.77;6.40;;;;;;;;;;5009564;28;20275;-56
2023/08/03 03:54:24;;;;;;;94.97;5.93;;;;;;;;;;5007843;28;20265;-56
2023/08/03 03:56:49;;;;;;;94.77;6.40;;;;;;;;;;5008939;28;20598;-57
2023/08/03 03:59:16;;;;;;;88.20;9.88;;;;;;;;;;5009261;28;20574;-57
2023/08/03 04:01:41;;;;;;;85.85;6.10;;;;;;;;;;5007504;28;20579;-54
2023/08/03 04:04:06;;;;;;;96.63;6.57;;;;;;;;;;5007888;28;20032;-55
2023/08/03 04:06:32;;;;;;;79.07;7.23;;;;;;;;;;5006642;28;20941;-55
2023/08/03 04:08:57;;;;;;;69.07;5.27;;;;;;;;;;5009196;28;20700;-56
2023/08/03 04:11:22;;;;;;;206.73;90.33;;;;;;;;;;5007619;28;20659;-56
2023/08/03 04:13:48;;;;;;;117.13;16.13;;;;;;;;;;5008681;28;20269;-55
2023/08/03 04:16:13;;;;;;;88.38;6.60;;;;;;;;;;5007555;28;20280;-53
2023/08/03 04:18:39;;;;;;;122.00;15.13;;;;;;;;;;5008691;28;20456;-54
2023/08/03 04:21:04;;;;;;;76.63;5.50;;;;;;;;;;5009412;28;20539;-55
2023/08/03 04:23:29;;;;;;;77.38;15.00;;;;;;;;;;5010835;28;20103;-54
2023/08/03 04:25:54;;;;;;;87.83;9.20;;;;;;;;;;5008225;28;20065;-54
2023/08/03 04:28:20;;;;;;;83.20;5.87;;;;;;;;;;5011520;28;20320;-53
2023/08/03 04:30:45;;;;;;;78.93;5.50;;;;;;;;;;5009173;28;20987;-54
2023/08/03 04:33:10;;;;;;;168.85;19.15;;;;;;;;;;5007815;28;20260;-55
2023/08/03 04:35:35;;;;;;;106.25;24.02;;;;;;;;;;5008240;28;20103;-54
2023/08/03 04:38:01;;;;;;;66.00;4.70;;;;;;;;;;5009637;28;20595;-55
2023/08/03 04:40:26;;;;;;;186.20;32.27;;;;;;;;;;5008630;28;20264;-54
2023/08/03 04:42:51;;;;;;;81.40;5.50;;;;;;;;;;5007435;28;20272;-53
2023/08/03 04:45:16;;;;;;;142.75;26.15;;;;;;;;;;5010196;28;20319;-55
2023/08/03 04:47:42;;;;;;;83.10;7.03;;;;;;;;;;5007697;28;20451;-55
2023/08/03 04:50:07;;;;;;;75.40;5.47;;;;;;;;;;5006450;28;20245;-56
2023/08/03 04:52:32;;;;;;;143.88;24.48;;;;;;;;;;5007211;28;20276;-56
2023/08/03 04:54:58;;;;;;;95.60;14.63;;;;;;;;;;5008234;28;20053;-55
2023/08/03 04:57:23;;;;;;;79.60;5.50;;;;;;;;;;5007835;28;20265;-54
2023/08/03 04:59:48;;;;;;;69.43;5.13;;;;;;;;;;5007835;28;20116;-54
2023/08/03 05:02:13;;;;;;;190.95;69.60;;;;;;;;;;5006041;28;20425;-53
2023/08/03 05:04:38;;;;;;;112.07;15.63;;;;;;;;;;5008157;28;20045;-55
2023/08/03 05:07:04;;;;;;;81.80;15.07;;;;;;;;;;5006137;28;20265;-55
2023/08/03 05:09:29;;;;;;;158.90;34.65;;;;;;;;;;5006171;28;20612;-56
2023/08/03 05:11:54;;;;;;;73.60;7.77;;;;;;;;;;5005582;28;20030;-57
2023/08/03 05:14:19;;;;;;;152.27;22.03;;;;;;;;;;5007951;28;20252;-54
2023/08/03 05:16:45;;;;;;;148.20;18.50;;;;;;;;;;5006550;28;20993;-55
2023/08/03 05:19:10;;;;;;;65.93;5.23;;;;;;;;;;5006846;28;20713;-55
2023/08/03 05:21:35;;;;;;;70.65;7.85;;;;;;;;;;5006110;28;20470;-53
2023/08/03 05:24:00;;;;;;;133.40;20.90;;;;;;;;;;5005123;28;20027;-55
2023/08/03 05:26:26;;;;;;;114.07;11.40;;;;;;;;;;5002352;28;20378;-55
2023/08/03 05:28:51;;;;;;;81.95;7.47;;;;;;;;;;5004857;28;20288;-55
2023/08/03 05:31:16;;;;;;;108.32;7.25;;;;;;;;;;5003836;28;20819;-54
2023/08/03 05:33:42;;;;;;;74.60;5.17;;;;;;;;;;5003822;28;20534;-55
2023/08/03 05:36:08;;;;;;;76.13;5.67;;;;;;;;;;5004595;28;20440;-54
2023/08/03 05:38:33;;;;;;;135.30;9.23;;;;;;;;;;5003042;28;20257;-54
2023/08/03 05:40:58;;;;;;;82.00;5.97;;;;;;;;;;5004157;28;20069;-54
2023/08/03 05:43:24;;;;;;;160.15;20.65;;;;;;;;;;5003880;28;20036;-55
2023/08/03 05:45:56;;;;;;;88.63;6.20;;;;;;;;;;5001814;28;20044;-54
2023/08/03 05:48:22;;;;;;;97.13;7.18;;;;;;;;;;5004229;28;20365;-54
2023/08/03 05:50:48;;;;;;;70.07;5.17;;;;;;;;;;5004348;28;20643;-55
2023/08/03 05:53:14;;;;;;;97.82;6.50;;;;;;;;;;5006202;28;20269;-55
2023/08/03 05:55:40;;;;;;;84.43;5.50;;;;;;;;;;5007586;28;20033;-54
2023/08/03 05:58:05;;;;;;;74.78;8.68;;;;;;;;;;5006129;28;20165;-53
2023/08/03 06:03:02;;;;;;;62.40;5.50;;;;;;;;;;5155050;27;21176;-54
2023/08/03 06:05:43;;;;;;;156.10;17.13;;;;;;;;;;5113397;27;20043;-55
2023/08/03 06:08:09;;;;;;;66.60;8.47;;;;;;;;;;5084464;28;20023;-56
2023/08/03 06:10:35;;;;;;;119.90;14.43;;;;;;;;;;5085589;28;20064;-56
2023/08/03 06:13:01;;;;;;;110.63;29.60;;;;;;;;;;5085189;28;20148;-53
2023/08/03 06:15:27;;;;;;;241.27;86.25;;;;;;;;;;5084125;28;20713;-56
2023/08/03 06:17:57;;;;;;;156.67;105.07;;;;;;;;;;5087281;28;20034;-53
2023/08/03 06:20:22;;;;;;;135.10;14.10;;;;;;;;;;5081869;28;20572;-55
2023/08/03 06:22:48;;;;;;;124.68;17.40;;;;;;;;;;5063680;28;20012;-55
2023/08/03 06:25:15;;;;;;;73.70;8.43;;;;;;;;;;5064447;28;20021;-56
2023/08/03 06:27:40;;;;;;;97.47;9.52;;;;;;;;;;5065551;28;20257;-54
2023/08/03 06:30:11;;;;;;;102.38;13.85;;;;;;;;;;5065220;28;20012;-56
2023/08/03 06:32:36;;;;;;;194.00;35.63;;;;;;;;;;5064434;28;20012;-55
2023/08/03 06:35:02;;;;;;;82.07;20.75;;;;;;;;;;5065641;28;20444;-55
2023/08/03 06:37:30;;;;;;;160.27;55.10;;;;;;;;;;5064148;28;20028;-56
2023/08/03 06:39:55;;;;;;;106.30;17.92;;;;;;;;;;5066916;28;20020;-56
2023/08/03 06:42:20;;;;;;;109.47;14.00;;;;;;;;;;5064454;28;20035;-55
2023/08/03 06:44:46;;;;;;;66.93;10.50;;;;;;;;;;5067545;28;20262;-54
2023/08/03 06:47:11;;;;;;;93.32;13.52;;;;;;;;;;5063952;28;20024;-55
2023/08/03 06:49:37;;;;;;;283.83;134.20;;;;;;;;;;5064451;28;20070;-55
2023/08/03 06:52:02;;;;;;;102.10;44.43;;;;;;;;;;5066451;28;20036;-54
2023/08/03 06:54:28;;;;;;;138.07;10.82;;;;;;;;;;5065185;28;20732;-55
2023/08/03 06:56:53;;;;;;;74.28;5.78;;;;;;;;;;5065720;28;20036;-55
2023/08/03 06:59:21;;;;;;;171.38;55.45;;;;;;;;;;5065192;28;20029;-54
2023/08/03 07:01:48;;;;;;;135.70;9.68;;;;;;;;;;5061071;28;20129;-56
2023/08/03 07:04:13;;;;;;;58.97;4.60;;;;;;;;;;5067676;28;20012;-55
2023/08/03 07:06:38;;;;;;;55.50;4.78;;;;;;;;;;5065112;28;20028;-54
2023/08/03 07:09:03;;;;;;;54.53;10.57;;;;;;;;;;5068047;28;20044;-54
2023/08/03 07:11:30;;;;;;;114.50;14.43;;;;;;;;;;5067999;28;20788;-55
2023/08/03 07:13:56;;;;;;;67.82;6.50;;;;;;;;;;5054805;28;20031;-55
2023/08/03 07:16:22;;;;;;;129.83;86.07;;;;;;;;;;5053332;28;20040;-56
2023/08/03 07:18:48;;;;;;;82.43;15.10;;;;;;;;;;5054218;28;20286;-56
2023/08/03 07:21:13;;;;;;;65.70;8.82;;;;;;;;;;5039403;28;20110;-57
2023/08/03 07:23:38;;;;;;;267.33;188.97;;;;;;;;;;5038556;28;20078;-54
2023/08/03 07:26:04;;;;;;;258.73;79.43;;;;;;;;;;5055661;28;20760;-54
2023/08/03 07:28:29;;;;;;;111.15;16.30;;;;;;;;;;5054024;28;20132;-56
2023/08/03 07:30:54;;;;;;;131.27;81.17;;;;;;;;;;5037806;28;20033;-54
2023/08/03 07:33:20;;;;;;;81.47;22.48;;;;;;;;;;5054586;28;20692;-54
2023/08/03 07:35:45;;;;;;;243.27;150.90;;;;;;;;;;5049989;28;20028;-55
2023/08/03 07:38:10;;;;;;;127.53;75.70;;;;;;;;;;5054841;28;20254;-54
2023/08/03 07:40:37;;;;;;;194.50;149.30;;;;;;;;;;5053834;28;20279;-56
2023/08/03 07:43:02;;;;;;;275.10;172.82;;;;;;;;;;5054830;28;20024;-55
2023/08/03 07:45:28;;;;;;;144.43;55.47;;;;;;;;;;5052176;28;20402;-55
2023/08/03 07:47:53;;;;;;;197.43;165.03;;;;;;;;;;5053451;28;20589;-55
2023/08/03 07:50:18;;;;;;;227.57;194.63;;;;;;;;;;5053922;28;20617;-56
2023/08/03 07:52:43;;;;;;;122.10;54.43;;;;;;;;;;5052231;28;20544;-56
2023/08/03 07:55:09;;;;;;;119.00;84.73;;;;;;;;;;5054082;28;20716;-54
2023/08/03 07:57:35;;;;;;;258.48;154.93;;;;;;;;;;5053260;28;20649;-54
2023/08/03 08:00:00;;;;;;;123.95;73.38;;;;;;;;;;5056652;28;20242;-56
2023/08/03 08:02:25;;;;;;;82.20;12.48;;;;;;;;;;5053600;28;20407;-55
2023/08/03 08:04:51;;;;;;;120.80;71.07;;;;;;;;;;5054998;28;20110;-55
2023/08/03 08:07:16;;;;;;;150.15;26.95;;;;;;;;;;5053416;28;20267;-56
2023/08/03 08:09:41;;;;;;;106.13;7.97;;;;;;;;;;5053741;28;20058;-55
2023/08/03 08:12:07;;;;;;;184.77;66.53;;;;;;;;;;5053959;28;20033;-56
2023/08/03 08:14:32;;;;;;;214.15;84.05;;;;;;;;;;5053587;28;20283;-55
2023/08/03 08:16:58;;;;;;;40.78;3.30;;;;;;;;;;5053965;28;20033;-56
2023/08/03 08:19:23;;;;;;;140.87;23.93;;;;;;;;;;5054244;28;20525;-55
2023/08/03 08:21:48;;;;;;;135.90;41.43;;;;;;;;;;5053977;28;20900;-55
2023/08/03 08:24:13;;;;;;;96.07;21.63;;;;;;;;;;5055793;28;20283;-55
2023/08/03 08:26:38;;;;;;;301.98;68.47;;;;;;;;;;5052472;28;20052;-55
2023/08/03 08:29:04;;;;;;;52.40;5.37;;;;;;;;;;5055012;28;20012;-55
2023/08/03 08:31:29;;;;;;;381.10;97.95;;;;;;;;;;5050691;28;20052;-55
2023/08/03 08:33:54;;;;;;;217.70;73.30;;;;;;;;;;5053605;28;20024;-55
2023/08/03 08:36:20;;;;;;;126.13;28.47;;;;;;;;;;5038220;28;20052;-54
2023/08/03 08:38:45;;;;;;;184.60;31.07;;;;;;;;;;5053130;28;20279;-54
2023/08/03 08:41:11;;;;;;;86.50;20.30;;;;;;;;;;5054191;28;20075;-54
2023/08/03 08:43:39;;;;;;;183.15;34.58;;;;;;;;;;5052051;28;20021;-54
2023/08/03 08:46:05;;;;;;;190.05;125.03;;;;;;;;;;5052621;28;20037;-55
2023/08/03 08:48:30;;;;;;;269.95;99.07;;;;;;;;;;5050873;28;20028;-57
2023/08/03 08:50:58;;;;;;;327.63;86.07;;;;;;;;;;5052254;28;20029;-55
2023/08/03 08:53:24;;;;;;;225.25;99.70;;;;;;;;;;5051380;28;20267;-54
2023/08/03 08:55:50;;;;;;;417.27;151.77;;;;;;;;;;5052794;28;20040;-54
2023/08/03 08:58:15;;;;;;;245.20;99.57;;;;;;;;;;5054013;28;20025;-56
2023/08/03 09:00:45;;;;;;;87.73;12.13;;;;;;;;;;5049270;28;20040;-55
2023/08/03 09:03:10;;;;;;;125.68;22.00;;;;;;;;;;5053470;28;20148;-54
2023/08/03 09:05:37;;;;;;;368.15;127.15;;;;;;;;;;5051684;28;20064;-56
2023/08/03 09:08:05;;;;;;;255.98;162.55;;;;;;;;;;5053826;28;20038;-54
2023/08/03 09:10:30;;;;;;;277.70;97.72;;;;;;;;;;5050945;28;20093;-56
2023/08/03 09:12:57;;;;;;;332.90;136.63;;;;;;;;;;5051926;28;20024;-56
2023/08/03 09:15:40;;;;;;;212.55;74.85;;;;;;;;;;5052247;28;20017;-55
2023/08/03 09:18:05;;;;;;;241.07;78.18;;;;;;;;;;5052774;28;20059;-54
2023/08/03 09:20:31;;;;;;;288.05;49.60;;;;;;;;;;5033603;28;20124;-56
2023/08/03 09:22:57;;;;;;;180.48;93.45;;;;;;;;;;5038640;28;20416;-55
2023/08/03 09:25:22;;;;;;;109.63;70.80;;;;;;;;;;5034939;28;20027;-54
2023/08/03 09:27:49;;;;;;;244.95;105.68;;;;;;;;;;5051017;28;20490;-56
2023/08/03 09:30:14;;;;;;;74.05;34.70;;;;;;;;;;5053371;28;20012;-54
2023/08/03 09:32:39;;;;;;;222.25;103.05;;;;;;;;;;5050375;28;20038;-54
2023/08/03 09:35:20;;;;;;;116.50;43.65;;;;;;;;;;5053422;28;20035;-54
2023/08/03 09:37:45;;;;;;;227.30;134.38;;;;;;;;;;5051406;28;20072;-55
2023/08/03 09:40:11;;;;;;;76.75;33.35;;;;;;;;;;5034172;28;20082;-56
2023/08/03 09:42:39;;;;;;;230.50;76.68;;;;;;;;;;5053194;28;20101;-55
2023/08/03 09:45:06;;;;;;;152.27;64.63;;;;;;;;;;5052312;28;20170;-56
2023/08/03 09:47:32;;;;;;;142.35;76.88;;;;;;;;;;5051247;28;20029;-54
2023/08/03 09:49:57;;;;;;;122.95;84.50;;;;;;;;;;5053247;28;20017;-57
2023/08/03 09:52:26;;;;;;;204.73;51.33;;;;;;;;;;5053829;28;20882;-54
2023/08/03 09:55:18;;;;;;;306.08;99.72;;;;;;;;;;5050404;28;20486;-54
2023/08/03 09:57:47;;;;;;;268.15;150.00;;;;;;;;;;5051891;28;20040;-56
2023/08/03 10:00:13;;;;;;;103.80;51.30;;;;;;;;;;5053245;28;20493;-54
2023/08/03 10:02:59;;;;;;;176.43;35.72;;;;;;;;;;5050909;28;20024;-54
2023/08/03 10:05:26;;;;;;;101.50;36.90;;;;;;;;;;5050245;28;20166;-55
2023/08/03 10:07:54;;;;;;;131.07;38.55;;;;;;;;;;5051217;28;20032;-55
2023/08/03 10:10:20;;;;;;;170.65;94.32;;;;;;;;;;5050297;28;20017;-54
2023/08/03 10:12:48;;;;;;;198.60;92.20;;;;;;;;;;5049227;28;20117;-56
2023/08/03 10:15:16;;;;;;;240.98;174.55;;;;;;;;;;5051424;28;20021;-56
2023/08/03 10:17:41;;;;;;;150.00;20.88;;;;;;;;;;5050430;28;20017;-55
2023/08/03 10:20:08;;;;;;;45.72;5.43;;;;;;;;;;5049977;28;20035;-55
2023/08/03 10:22:34;;;;;;;320.27;120.95;;;;;;;;;;5048621;28;20021;-55
2023/08/03 10:25:18;;;;;;;62.58;10.15;;;;;;;;;;5050317;28;20013;-55
2023/08/03 10:28:02;;;;;;;178.02;111.32;;;;;;;;;;5049972;28;20169;-55
2023/08/03 10:30:47;;;;;;;89.15;12.00;;;;;;;;;;5051988;28;20028;-56
2023/08/03 10:33:12;;;;;;;122.43;42.22;;;;;;;;;;5050814;28;20024;-55
2023/08/03 10:35:38;;;;;;;175.30;61.27;;;;;;;;;;5049193;28;20020;-54
2023/08/03 10:38:17;;;;;;;175.95;117.90;;;;;;;;;;5050707;28;20017;-55
2023/08/03 10:40:42;;;;;;;387.58;187.18;;;;;;;;;;5049644;28;20562;-57
2023/08/03 10:43:08;;;;;;;267.00;106.77;;;;;;;;;;5051456;28;20035;-54
2023/08/03 10:45:34;;;;;;;351.30;141.52;;;;;;;;;;5047803;28;20271;-56
2023/08/03 10:48:01;;;;;;;198.07;129.88;;;;;;;;;;5053506;28;20728;-55
2023/08/03 10:50:45;;;;;;;82.63;17.70;;;;;;;;;;5053802;28;20138;-55
2023/08/03 10:53:10;;;;;;;217.45;137.68;;;;;;;;;;5055156;28;20040;-57
2023/08/03 10:55:35;;;;;;;133.73;64.80;;;;;;;;;;5052773;28;20112;-54
2023/08/03 10:58:01;;;;;;;112.57;60.33;;;;;;;;;;5053993;28;20254;-55
2023/08/03 11:00:26;;;;;;;64.57;9.53;;;;;;;;;;5054530;28;20043;-54
2023/08/03 11:02:51;;;;;;;178.87;76.17;;;;;;;;;;5052747;28;20328;-55
2023/08/03 11:05:16;;;;;;;123.07;59.87;;;;;;;;;;5054191;28;20340;-54
2023/08/03 11:07:42;;;;;;;245.67;190.43;;;;;;;;;;5053607;28;20362;-56
2023/08/03 11:10:11;;;;;;;238.57;63.67;;;;;;;;;;5037630;28;20313;-56
2023/08/03 11:12:37;;;;;;;144.50;91.28;;;;;;;;;;5053740;28;20028;-56
2023/08/03 11:15:03;;;;;;;119.93;44.42;;;;;;;;;;5053762;28;20024;-54
2023/08/03 11:17:29;;;;;;;144.88;69.00;;;;;;;;;;5051833;28;20317;-55
2023/08/03 11:19:55;;;;;;;212.18;116.45;;;;;;;;;;5052424;28;20567;-55
2023/08/03 11:22:23;;;;;;;207.52;132.50;;;;;;;;;;5052699;28;20036;-56
2023/08/03 11:24:49;;;;;;;284.05;235.20;;;;;;;;;;5051077;28;20016;-55
2023/08/03 11:27:16;;;;;;;215.35;189.02;;;;;;;;;;5054369;28;20024;-56
2023/08/03 11:29:41;;;;;;;184.10;108.22;;;;;;;;;;5055314;28;20063;-55
2023/08/03 11:32:08;;;;;;;208.30;169.60;;;;;;;;;;5054327;28;20119;-56
2023/08/03 11:34:33;;;;;;;174.88;94.38;;;;;;;;;;5055836;28;20270;-56
2023/08/03 11:36:59;;;;;;;233.00;101.05;;;;;;;;;;5051584;28;20058;-56
2023/08/03 11:39:24;;;;;;;95.95;16.42;;;;;;;;;;5053550;28;20020;-56
2023/08/03 11:41:51;;;;;;;169.48;36.88;;;;;;;;;;5053284;28;20561;-55
2023/08/03 11:44:19;;;;;;;85.72;22.15;;;;;;;;;;5054046;28;20028;-56
2023/08/03 11:46:49;;;;;;;239.23;153.88;;;;;;;;;;5051586;28;20128;-57
2023/08/03 11:49:14;;;;;;;84.03;41.97;;;;;;;;;;5055144;28;20082;-56
2023/08/03 11:51:39;;;;;;;304.60;143.53;;;;;;;;;;5050430;28;20532;-54
2023/08/03 11:54:09;;;;;;;141.87;106.57;;;;;;;;;;5054248;28;20074;-55
2023/08/03 11:56:34;;;;;;;191.07;156.70;;;;;;;;;;5053735;28;20271;-57
2023/08/03 11:59:01;;;;;;;196.30;147.57;;;;;;;;;;5052671;28;20062;-57
2023/08/03 12:01:27;;;;;;;141.63;62.58;;;;;;;;;;5052940;28;20064;-56
2023/08/03 12:04:09;;;;;;;221.68;161.73;;;;;;;;;;5052600;28;20059;-55
2023/08/03 12:06:45;;;;;;;122.82;95.35;;;;;;;;;;5049823;28;20039;-56
2023/08/03 12:09:16;;;;;;;184.73;139.23;;;;;;;;;;5054266;28;20081;-55
2023/08/03 12:11:41;;;;;;;124.25;63.60;;;;;;;;;;5053941;28;20542;-56
2023/08/03 12:14:06;;;;;;;109.33;33.63;;;;;;;;;;5052891;28;20470;-56
2023/08/03 12:16:31;;;;;;;202.13;143.00;;;;;;;;;;5054171;28;20052;-56
2023/08/03 12:18:57;;;;;;;125.32;25.20;;;;;;;;;;5052240;28;20281;-57
2023/08/03 12:21:22;;;;;;;81.50;26.97;;;;;;;;;;5053426;28;20068;-56
2023/08/03 12:23:47;;;;;;;160.90;42.70;;;;;;;;;;5051499;28;20159;-57
2023/08/03 12:26:12;;;;;;;191.32;48.60;;;;;;;;;;5052362;28;20356;-56
2023/08/03 12:28:38;;;;;;;155.23;72.13;;;;;;;;;;5053980;28;20063;-56
2023/08/03 12:31:03;;;;;;;146.50;114.03;;;;;;;;;;5050246;28;20287;-56
2023/08/03 12:33:28;;;;;;;363.43;109.57;;;;;;;;;;5053429;28;20048;-57
2023/08/03 12:35:53;;;;;;;236.37;86.07;;;;;;;;;;5052462;28;20561;-56
2023/08/03 12:38:18;;;;;;;285.23;258.07;;;;;;;;;;5052393;28;20751;-57
2023/08/03 12:40:44;;;;;;;268.13;168.63;;;;;;;;;;5051529;28;20272;-56
2023/08/03 12:43:09;;;;;;;172.33;144.07;;;;;;;;;;5051202;28;20013;-57
2023/08/03 12:45:34;;;;;;;70.93;11.30;;;;;;;;;;5053437;28;20036;-57
2023/08/03 12:48:03;;;;;;;270.33;111.25;;;;;;;;;;5051142;28;20259;-56
2023/08/03 12:50:29;;;;;;;61.30;15.43;;;;;;;;;;5052571;28;20917;-56
2023/08/03 12:52:54;;;;;;;200.93;100.05;;;;;;;;;;5034084;28;20028;-57
2023/08/03 12:55:20;;;;;;;101.00;61.53;;;;;;;;;;5052572;28;20025;-57
2023/08/03 12:57:45;;;;;;;345.70;133.98;;;;;;;;;;5051015;28;20338;-56
2023/08/03 13:00:10;;;;;;;337.50;113.53;;;;;;;;;;5053480;28;20017;-54
2023/08/03 13:02:35;;;;;;;256.42;138.13;;;;;;;;;;5053020;28;20036;-55
2023/08/03 13:05:01;;;;;;;292.52;90.57;;;;;;;;;;5050597;28;20426;-55
2023/08/03 13:07:26;;;;;;;166.50;141.10;;;;;;;;;;5053684;28;20041;-56
2023/08/03 13:09:51;;;;;;;271.97;116.13;;;;;;;;;;5051851;28;20640;-56
2023/08/03 13:12:16;;;;;;;84.57;26.58;;;;;;;;;;5053286;28;20301;-55
2023/08/03 13:14:42;;;;;;;171.83;119.10;;;;;;;;;;5051235;28;20012;-55
2023/08/03 13:17:07;;;;;;;222.63;79.83;;;;;;;;;;5052671;28;20821;-55
2023/08/03 13:19:33;;;;;;;153.38;126.68;;;;;;;;;;5052744;28;20262;-56
2023/08/03 13:21:58;;;;;;;151.63;37.05;;;;;;;;;;5050670;28;20033;-55
2023/08/03 13:24:23;;;;;;;202.18;110.47;;;;;;;;;;5035600;28;20169;-56
2023/08/03 13:26:49;;;;;;;463.45;203.48;;;;;;;;;;5051324;28;20032;-54
2023/08/03 13:29:16;;;;;;;160.13;106.43;;;;;;;;;;5052691;28;20561;-54
2023/08/03 13:31:42;;;;;;;392.20;222.43;;;;;;;;;;5052456;28;20044;-56
2023/08/03 13:34:07;;;;;;;158.07;56.97;;;;;;;;;;5033662;28;20063;-55
2023/08/03 13:36:32;;;;;;;121.83;48.57;;;;;;;;;;5052855;28;20577;-55
2023/08/03 13:38:57;;;;;;;302.33;205.83;;;;;;;;;;5051596;28;20275;-54
2023/08/03 13:41:23;;;;;;;206.57;74.90;;;;;;;;;;5052279;28;20370;-55
2023/08/03 13:43:48;;;;;;;297.23;166.83;;;;;;;;;;5050206;28;20107;-55
2023/08/03 13:46:13;;;;;;;262.90;215.60;;;;;;;;;;5050326;28;20599;-56
2023/08/03 13:48:38;;;;;;;225.70;136.27;;;;;;;;;;5051650;28;20028;-55
2023/08/03 13:51:04;;;;;;;160.97;101.87;;;;;;;;;;5049575;28;20282;-55
2023/08/03 13:53:29;;;;;;;150.50;99.87;;;;;;;;;;5052147;28;20097;-55
2023/08/03 13:55:54;;;;;;;249.18;168.25;;;;;;;;;;5050770;28;20041;-54
2023/08/03 13:58:20;;;;;;;237.27;212.30;;;;;;;;;;5051423;28;20020;-54
2023/08/03 14:00:45;;;;;;;182.27;142.23;;;;;;;;;;5049115;28;20041;-56
2023/08/03 14:03:10;;;;;;;207.97;182.43;;;;;;;;;;5052393;28;20028;-55
2023/08/03 14:05:36;;;;;;;266.13;229.67;;;;;;;;;;5050109;28;20044;-55
2023/08/03 14:08:01;;;;;;;189.05;157.65;;;;;;;;;;5049219;28;20259;-55